createdAt,value
2019-04-26T00:00:48.206Z,63.10
2019-04-26T00:03:17.082Z,63.53
2019-04-26T00:05:43.907Z,62.37
2019-04-26T00:08:11.790Z,62.17
2019-04-26T00:10:40.815Z,62.56
2019-04-26T00:13:10.202Z,63.04
2019-04-26T00:15:40.556Z,62.72
2019-04-26T00:18:07.734Z,62.88
2019-04-26T00:20:35.549Z,63.04
2019-04-26T00:23:02.158Z,62.91
2019-04-26T00:25:29.213Z,62.81
2019-04-26T00:27:55.796Z,62.94
2019-04-26T00:30:25.665Z,62.70
2019-04-26T00:32:52.373Z,63.04
2019-04-26T00:35:19.909Z,63.12
2019-04-26T00:37:46.749Z,62.93
2019-04-26T00:40:14.337Z,63.11
2019-04-26T00:42:44.574Z,63.58
2019-04-26T00:45:13.901Z,63.57
2019-04-26T00:47:43.009Z,63.75
2019-04-26T00:50:10.482Z,64.28
2019-04-26T00:52:40.019Z,64.71
2019-04-26T00:55:07.938Z,64.31
2019-04-26T00:57:35.396Z,64.12
2019-04-26T01:00:05.117Z,63.61
2019-04-26T01:02:34.010Z,63.37
2019-04-26T01:05:00.677Z,63.18
2019-04-26T01:07:27.995Z,63.21
2019-04-26T01:09:54.627Z,63.40
2019-04-26T01:12:21.851Z,63.58
2019-04-26T01:14:49.086Z,63.61
2019-04-26T01:17:17.152Z,63.90
2019-04-26T01:19:46.552Z,63.54
2019-04-26T01:22:19.374Z,63.59
2019-04-26T01:24:49.660Z,63.88
2019-04-26T01:27:22.017Z,64.10
2019-04-26T01:29:54.310Z,64.21
2019-04-26T01:32:22.521Z,63.87
2019-04-26T01:34:52.561Z,64.22
2019-04-26T01:37:20.614Z,63.99
2019-04-26T01:39:55.089Z,64.89
2019-04-26T01:42:24.882Z,63.88
2019-04-26T01:44:57.284Z,64.23
2019-04-26T01:47:24.365Z,64.43
2019-04-26T01:49:52.660Z,64.47
2019-04-26T01:52:19.504Z,64.84
2019-04-26T01:54:46.429Z,64.94
2019-04-26T01:57:14.716Z,64.65
2019-04-26T01:59:49.014Z,64.83
2019-04-26T02:02:18.127Z,64.78
2019-04-26T02:04:49.807Z,64.69
2019-04-26T02:07:18.742Z,64.66
2019-04-26T02:09:45.569Z,64.94
2019-04-26T02:12:12.447Z,65.36
2019-04-26T02:14:39.389Z,65.59
2019-04-26T02:17:09.651Z,65.44
2019-04-26T02:19:36.343Z,66.25
2019-04-26T02:22:06.146Z,66.91
2019-04-26T02:24:35.253Z,66.76
2019-04-26T02:27:04.048Z,66.78
2019-04-26T02:29:30.675Z,67.61
2019-04-26T02:32:53.781Z,68.20
2019-04-26T02:35:20.509Z,68.22
2019-04-26T02:37:47.654Z,67.35
2019-04-26T02:40:17.861Z,66.26
2019-04-26T02:42:47.409Z,65.94
2019-04-26T02:45:21.649Z,66.11
2019-04-26T02:47:54.894Z,65.65
2019-04-26T02:50:29.049Z,65.44
2019-04-26T02:52:59.955Z,65.91
2019-04-26T02:55:36.894Z,66.40
2019-04-26T02:58:01.852Z,66.92
2019-04-26T03:00:30.151Z,66.62
2019-04-26T03:03:03.932Z,67.00
2019-04-26T03:05:37.658Z,67.99
2019-04-26T03:08:10.770Z,67.75
2019-04-26T03:10:43.637Z,67.74
2019-04-26T03:13:18.084Z,67.43
2019-04-26T03:15:52.340Z,67.09
2019-04-26T03:18:29.264Z,67.26
2019-04-26T03:21:01.637Z,67.53
2019-04-26T03:23:45.794Z,68.12
2019-04-26T03:26:08.364Z,68.32
2019-04-26T03:28:39.954Z,67.99
2019-04-26T03:31:13.641Z,67.90
2019-04-26T03:33:53.235Z,67.09
2019-04-26T03:36:20.322Z,67.76
2019-04-26T03:38:54.571Z,67.91
2019-04-26T03:41:27.139Z,68.49
2019-04-26T03:43:59.703Z,67.29
2019-04-26T03:46:37.583Z,68.04
2019-04-26T03:49:08.523Z,67.99
2019-04-26T03:51:41.631Z,68.40
2019-04-26T03:54:15.203Z,68.10
2019-04-26T03:56:49.390Z,68.25
2019-04-26T03:59:23.786Z,69.21
2019-04-26T04:01:58.106Z,68.54
2019-04-26T04:04:32.562Z,68.08
2019-04-26T04:07:05.229Z,68.67
2019-04-26T04:09:38.031Z,68.94
2019-04-26T04:12:12.385Z,69.67
2019-04-26T04:14:48.170Z,69.41
2019-04-26T04:17:21.373Z,68.19
2019-04-26T04:19:55.641Z,68.67
2019-04-26T04:22:27.964Z,68.94
2019-04-26T04:25:00.457Z,69.59
2019-04-26T04:27:32.824Z,69.83
2019-04-26T04:30:05.282Z,68.76
2019-04-26T04:32:39.668Z,68.58
2019-04-26T04:35:10.780Z,67.95
2019-04-26T04:38:02.197Z,67.42
2019-04-26T04:40:19.440Z,67.01
2019-04-26T04:42:53.846Z,66.45
2019-04-26T04:45:26.505Z,66.70
2019-04-26T04:48:01.184Z,66.92
2019-04-26T04:50:35.687Z,67.16
2019-04-26T04:53:08.099Z,67.10
2019-04-26T04:55:38.575Z,66.76
2019-04-26T04:58:10.963Z,66.93
2019-04-26T05:00:45.376Z,66.70
2019-04-26T05:03:19.650Z,66.78
2019-04-26T05:06:06.656Z,66.23
2019-04-26T05:08:28.241Z,66.80
2019-04-26T05:10:59.979Z,67.94
2019-04-26T05:13:30.418Z,67.64
2019-04-26T05:16:02.737Z,67.79
2019-04-26T05:18:35.124Z,66.72
2019-04-26T05:21:07.490Z,67.47
2019-04-26T05:23:40.516Z,67.15
2019-04-26T05:26:12.987Z,66.89
2019-04-26T05:28:47.568Z,66.18
2019-04-26T05:31:20.408Z,66.05
2019-04-26T05:33:52.724Z,66.22
2019-04-26T05:36:25.103Z,65.81
2019-04-26T05:38:57.655Z,65.99
2019-04-26T05:41:31.299Z,65.37
2019-04-26T05:44:01.822Z,64.50
2019-04-26T05:46:36.666Z,63.90
2019-04-26T05:49:11.016Z,63.76
2019-04-26T05:51:45.331Z,63.37
2019-04-26T05:54:19.583Z,62.35
2019-04-26T05:56:54.334Z,60.82
2019-04-26T05:59:27.564Z,60.09
2019-04-26T06:02:03.035Z,59.52
2019-04-26T06:04:37.237Z,59.14
2019-04-26T06:07:11.558Z,57.61
2019-04-26T06:09:45.813Z,57.14
2019-04-26T06:12:20.054Z,56.65
2019-04-26T06:14:52.954Z,55.09
2019-04-26T06:17:25.466Z,54.51
2019-04-26T06:19:57.853Z,53.35
2019-04-26T06:22:30.269Z,53.62
2019-04-26T06:25:04.504Z,53.01
2019-04-26T06:27:39.037Z,53.09
2019-04-26T06:30:11.323Z,52.25
2019-04-26T06:32:42.005Z,52.59
2019-04-26T06:35:14.366Z,52.42
2019-04-26T06:37:48.486Z,53.13
2019-04-26T06:40:20.808Z,51.72
2019-04-26T06:42:54.719Z,51.28
2019-04-26T06:45:29.170Z,51.01
2019-04-26T06:48:01.827Z,50.53
2019-04-26T06:50:36.523Z,49.33
2019-04-26T06:53:09.067Z,49.39
2019-04-26T06:55:43.398Z,49.18
2019-04-26T06:58:17.701Z,48.43
2019-04-26T07:00:51.959Z,48.09
2019-04-26T07:03:24.304Z,48.49
2019-04-26T07:05:56.585Z,48.11
2019-04-26T07:08:29.086Z,46.81
2019-04-26T07:11:02.767Z,46.84
2019-04-26T07:13:37.446Z,45.27
2019-04-26T07:16:19.640Z,45.79
2019-04-26T07:18:44.063Z,45.46
2019-04-26T07:21:18.392Z,44.62
2019-04-26T07:23:52.752Z,45.21
2019-04-26T07:26:25.129Z,44.68
2019-04-26T07:28:57.946Z,43.98
2019-04-26T07:31:30.257Z,44.65
2019-04-26T07:34:03.508Z,45.16
2019-04-26T07:36:35.993Z,44.60
2019-04-26T07:39:18.473Z,43.94
2019-04-26T07:41:46.606Z,44.28
2019-04-26T07:44:21.060Z,43.57
2019-04-26T07:46:51.566Z,43.46
2019-04-26T07:49:24.555Z,43.78
2019-04-26T07:51:56.928Z,43.81
2019-04-26T07:54:29.470Z,42.83
2019-04-26T07:56:59.869Z,42.32
2019-04-26T07:59:32.341Z,42.33
2019-04-26T08:02:06.698Z,42.54
2019-04-26T08:04:39.150Z,41.80
2019-04-26T08:07:11.715Z,41.52
2019-04-26T08:09:46.227Z,41.50
2019-04-26T08:12:18.615Z,40.78
2019-04-26T08:14:51.159Z,41.31
2019-04-26T08:17:25.359Z,41.20
2019-04-26T08:19:59.787Z,40.84
2019-04-26T08:22:33.736Z,40.12
2019-04-26T08:25:06.695Z,40.43
2019-04-26T08:27:36.497Z,40.25
2019-04-26T08:30:12.739Z,39.38
2019-04-26T08:32:43.449Z,39.32
2019-04-26T08:35:21.576Z,39.56
2019-04-26T08:37:53.341Z,39.37
2019-04-26T08:40:30.782Z,39.67
2019-04-26T08:42:57.444Z,38.17
2019-04-26T08:45:32.909Z,37.60
2019-04-26T08:48:03.169Z,37.61
2019-04-26T08:50:32.571Z,37.25
2019-04-26T08:53:03.298Z,37.33
2019-04-26T08:55:34.983Z,37.50
2019-04-26T08:58:07.384Z,37.22
2019-04-26T09:00:40.560Z,36.68
2019-04-26T09:03:13.597Z,36.32
2019-04-26T09:05:49.845Z,36.61
2019-04-26T09:08:18.906Z,36.15
2019-04-26T09:10:49.587Z,36.11
2019-04-26T09:13:20.283Z,36.65
2019-04-26T09:15:52.742Z,35.89
2019-04-26T09:18:19.392Z,35.93
2019-04-26T09:20:46.250Z,35.74
2019-04-26T09:23:14.772Z,35.45
2019-04-26T09:25:43.413Z,35.85
2019-04-26T09:28:11.914Z,35.54
2019-04-26T09:30:42.426Z,36.30
2019-04-26T09:33:11.314Z,35.47
2019-04-26T09:35:38.348Z,35.59
2019-04-26T09:38:05.157Z,36.00
2019-04-26T09:40:31.731Z,35.72
2019-04-26T09:43:02.594Z,35.10
2019-04-26T09:45:31.156Z,35.07
2019-04-26T09:47:59.907Z,35.04
2019-04-26T09:50:28.619Z,35.22
2019-04-26T09:52:58.295Z,35.42
2019-04-26T09:55:35.168Z,35.66
2019-04-26T09:57:57.059Z,35.29
2019-04-26T10:00:25.291Z,34.91
2019-04-26T10:02:52.261Z,34.13
2019-04-26T10:05:22.326Z,34.60
2019-04-26T10:07:48.889Z,33.41
2019-04-26T10:10:22.767Z,32.51
2019-04-26T10:12:46.822Z,31.94
2019-04-26T10:15:15.567Z,32.03
2019-04-26T10:17:42.378Z,30.84
2019-04-26T10:20:10.337Z,30.07
2019-04-26T10:22:37.189Z,30.33
2019-04-26T10:25:07.626Z,30.77
2019-04-26T10:27:36.346Z,30.77
2019-04-26T10:30:09.466Z,31.33
2019-04-26T10:32:36.605Z,29.22
2019-04-26T10:35:04.699Z,29.12
2019-04-26T10:37:39.171Z,28.62
2019-04-26T10:40:00.168Z,28.08
2019-04-26T10:42:27.363Z,28.44
2019-04-26T10:44:53.937Z,29.19
2019-04-26T10:47:20.501Z,29.05
2019-04-26T10:49:47.711Z,28.64
2019-04-26T10:52:17.686Z,27.56
2019-04-26T10:54:46.379Z,28.87
2019-04-26T10:57:15.688Z,27.74
2019-04-26T10:59:45.540Z,27.43
2019-04-26T11:02:15.444Z,27.98
2019-04-26T11:04:42.927Z,27.54
2019-04-26T11:07:10.067Z,27.86
2019-04-26T11:09:36.720Z,27.77
2019-04-26T11:12:04.380Z,26.92
2019-04-26T11:14:32.490Z,26.99
2019-04-26T11:16:59.418Z,27.10
2019-04-26T11:19:26.218Z,26.59
2019-04-26T11:21:54.785Z,25.85
2019-04-26T11:24:22.029Z,25.66
2019-04-26T11:26:48.891Z,25.73
2019-04-26T11:29:15.451Z,25.05
2019-04-26T11:31:42.322Z,24.26
2019-04-26T11:34:10.350Z,24.00
2019-04-26T11:36:37.631Z,24.57
2019-04-26T11:39:09.959Z,24.89
2019-04-26T11:41:39.048Z,24.14
2019-04-26T11:44:06.016Z,23.72
2019-04-26T11:46:44.177Z,23.86
2019-04-26T11:49:03.159Z,23.50
2019-04-26T11:51:32.007Z,24.25
2019-04-26T11:53:58.659Z,24.67
2019-04-26T11:56:25.324Z,26.12
2019-04-26T11:58:52.494Z,24.88
2019-04-26T12:01:22.936Z,25.12
2019-04-26T12:03:51.752Z,26.83
2019-04-26T12:06:21.416Z,25.90
2019-04-26T12:08:50.106Z,25.48
2019-04-26T12:11:18.964Z,25.08
2019-04-26T12:13:46.549Z,24.97
2019-04-26T12:16:14.722Z,26.64
2019-04-26T12:18:44.196Z,26.38
2019-04-26T12:21:10.337Z,26.14
2019-04-26T12:23:37.222Z,26.93
2019-04-26T12:26:03.914Z,26.42
2019-04-26T12:28:30.594Z,27.55
2019-04-26T12:30:58.493Z,26.65
2019-04-26T12:33:25.759Z,26.83
2019-04-26T12:35:57.041Z,25.87
2019-04-26T12:38:24.122Z,26.20
2019-04-26T12:40:51.175Z,26.12
2019-04-26T12:43:20.042Z,26.09
2019-04-26T12:45:51.443Z,26.08
2019-04-26T12:48:19.410Z,26.00
2019-04-26T12:50:46.048Z,25.40
2019-04-26T12:53:12.724Z,24.86
2019-04-26T12:55:39.420Z,25.55
2019-04-26T12:58:06.057Z,26.69
2019-04-26T13:00:37.470Z,26.29
2019-04-26T13:03:03.632Z,26.25
2019-04-26T13:05:30.406Z,25.50
2019-04-26T13:07:57.211Z,25.51
2019-04-26T13:10:25.952Z,25.16
2019-04-26T13:12:55.222Z,26.21
2019-04-26T13:15:29.408Z,26.45
2019-04-26T13:17:56.639Z,28.11
2019-04-26T13:20:24.348Z,28.08
2019-04-26T13:22:54.202Z,28.62
2019-04-26T13:25:26.484Z,28.13
2019-04-26T13:27:49.036Z,27.09
2019-04-26T13:30:15.839Z,27.29
2019-04-26T13:32:42.413Z,26.93
2019-04-26T13:35:11.446Z,27.40
2019-04-26T13:37:37.941Z,27.31
2019-04-26T13:40:06.439Z,27.45
2019-04-26T13:42:33.417Z,28.16
2019-04-26T13:45:02.151Z,27.43
2019-04-26T13:47:30.657Z,28.30
2019-04-26T13:49:59.314Z,27.94
2019-04-26T13:52:25.936Z,27.39
2019-04-26T13:54:55.539Z,26.69
2019-04-26T13:57:21.277Z,26.46
2019-04-26T13:59:48.048Z,26.00
2019-04-26T14:02:15.616Z,26.33
2019-04-26T14:04:43.470Z,26.86
2019-04-26T14:07:11.643Z,27.51
2019-04-26T14:09:38.418Z,26.63
2019-04-26T14:12:17.913Z,26.94
2019-04-26T14:14:35.175Z,27.06
2019-04-26T14:17:02.218Z,27.12
2019-04-26T14:19:28.904Z,27.45
2019-04-26T14:21:56.213Z,27.04
2019-04-26T14:24:25.229Z,27.79
2019-04-26T14:26:54.172Z,27.36
2019-04-26T14:29:20.866Z,27.76
2019-04-26T14:31:51.389Z,28.50
2019-04-26T14:34:16.120Z,29.06
2019-04-26T14:36:43.802Z,28.61
2019-04-26T14:39:14.399Z,28.79
2019-04-26T14:41:39.442Z,28.60
2019-04-26T14:44:15.241Z,29.41
2019-04-26T14:46:47.995Z,29.94
2019-04-26T14:49:05.689Z,29.64
2019-04-26T14:51:32.458Z,29.63
2019-04-26T14:53:59.176Z,29.87
2019-04-26T14:56:29.405Z,29.97
2019-04-26T14:58:54.572Z,30.19
2019-04-26T15:01:28.514Z,30.72
2019-04-26T15:03:58.313Z,30.60
2019-04-26T15:06:26.303Z,31.10
2019-04-26T15:08:53.217Z,30.69
2019-04-26T15:11:20.074Z,30.78
2019-04-26T15:13:46.830Z,30.70
2019-04-26T15:16:14.348Z,30.56
2019-04-26T15:18:42.648Z,30.70
2019-04-26T15:21:09.799Z,30.47
2019-04-26T15:23:36.779Z,31.42
2019-04-26T15:26:03.653Z,31.48
2019-04-26T15:28:30.347Z,31.60
2019-04-26T15:30:57.442Z,31.27
2019-04-26T15:33:24.028Z,31.24
2019-04-26T15:35:52.117Z,30.97
2019-04-26T15:38:19.479Z,30.55
2019-04-26T15:40:47.991Z,30.33
2019-04-26T15:43:17.831Z,30.73
2019-04-26T15:45:46.428Z,30.21
2019-04-26T15:48:16.195Z,29.68
2019-04-26T15:50:50.368Z,30.06
2019-04-26T15:53:14.874Z,28.50
2019-04-26T15:55:43.526Z,29.31
2019-04-26T15:58:10.405Z,29.03
2019-04-26T16:00:37.138Z,29.00
2019-04-26T16:03:07.333Z,29.53
2019-04-26T16:05:32.764Z,29.63
2019-04-26T16:08:01.811Z,29.77
2019-04-26T16:10:29.627Z,30.63
2019-04-26T16:13:00.068Z,29.28
2019-04-26T16:15:25.576Z,29.90
2019-04-26T16:17:52.259Z,29.63
2019-04-26T16:20:19.023Z,30.14
2019-04-26T16:22:45.845Z,29.67
2019-04-26T16:25:12.951Z,29.96
2019-04-26T16:27:39.820Z,29.87
2019-04-26T16:30:09.462Z,30.28
2019-04-26T16:32:36.348Z,30.19
2019-04-26T16:35:05.817Z,30.70
2019-04-26T16:37:33.138Z,31.09
2019-04-26T16:40:07.938Z,30.84
2019-04-26T16:42:34.491Z,31.32
2019-04-26T16:45:06.201Z,31.70
2019-04-26T16:47:35.414Z,31.64
2019-04-26T16:50:05.007Z,31.72
2019-04-26T16:52:33.679Z,31.30
2019-04-26T16:55:02.737Z,32.10
2019-04-26T16:57:29.228Z,32.26
2019-04-26T17:00:35.777Z,32.44
2019-04-26T17:02:26.479Z,32.68
2019-04-26T17:04:53.508Z,33.27
2019-04-26T17:07:25.398Z,33.30
2019-04-26T17:09:57.327Z,33.86
2019-04-26T17:12:20.349Z,33.62
2019-04-26T17:14:48.918Z,34.75
2019-04-26T17:17:15.592Z,34.74
2019-04-26T17:19:43.213Z,34.45
2019-04-26T17:22:15.964Z,35.31
2019-04-26T17:24:46.412Z,35.31
2019-04-26T17:27:15.610Z,35.69
2019-04-26T17:29:42.403Z,35.65
2019-04-26T17:32:29.314Z,35.95
2019-04-26T17:34:59.469Z,36.24
2019-04-26T17:37:26.448Z,36.81
2019-04-26T17:39:55.348Z,37.30
2019-04-26T17:42:25.337Z,37.54
2019-04-26T17:44:51.654Z,37.89
2019-04-26T17:47:20.143Z,38.26
2019-04-26T17:49:48.175Z,38.55
2019-04-26T17:52:14.755Z,38.84
2019-04-26T17:54:47.012Z,39.36
2019-04-26T17:57:14.514Z,39.71
2019-04-26T17:59:45.024Z,39.89
2019-04-26T18:02:25.586Z,39.80
2019-04-26T18:04:39.199Z,40.20
2019-04-26T18:07:33.889Z,40.26
2019-04-26T18:09:43.969Z,40.58
2019-04-26T18:12:04.385Z,41.79
2019-04-26T18:14:32.118Z,41.83
2019-04-26T18:17:01.528Z,42.38
2019-04-26T18:19:33.474Z,42.77
2019-04-26T18:22:00.480Z,41.89
2019-04-26T18:24:31.289Z,42.18
2019-04-26T18:26:59.063Z,42.53
2019-04-26T18:29:29.314Z,42.55
2019-04-26T18:31:59.192Z,43.03
2019-04-26T18:34:24.019Z,43.36
2019-04-26T18:36:50.829Z,43.74
2019-04-26T18:39:18.079Z,43.92
2019-04-26T18:41:46.471Z,44.08
2019-04-26T18:44:13.903Z,44.63
2019-04-26T18:46:46.522Z,44.31
2019-04-26T18:49:15.151Z,44.74
2019-04-26T18:51:43.364Z,45.31
2019-04-26T18:54:14.424Z,45.45
2019-04-26T18:56:44.458Z,45.30
2019-04-26T18:59:11.815Z,45.83
2019-04-26T19:01:41.667Z,45.44
2019-04-26T19:04:12.832Z,45.69
2019-04-26T19:06:37.967Z,45.83
2019-04-26T19:09:07.563Z,46.51
2019-04-26T19:11:35.787Z,46.54
2019-04-26T19:14:06.401Z,46.90
2019-04-26T19:16:36.083Z,46.58
2019-04-26T19:19:05.113Z,46.98
2019-04-26T19:21:38.922Z,47.22
2019-04-26T19:24:07.440Z,47.57
2019-04-26T19:26:34.880Z,47.22
2019-04-26T19:29:00.195Z,47.37
2019-04-26T19:31:27.561Z,47.68
2019-04-26T19:33:56.000Z,47.71
2019-04-26T19:36:26.176Z,47.75
2019-04-26T19:38:53.262Z,47.85
2019-04-26T19:41:21.695Z,48.27
2019-04-26T19:43:48.673Z,48.85
2019-04-26T19:46:21.228Z,49.09
2019-04-26T19:48:49.495Z,48.70
2019-04-26T19:51:19.111Z,49.01
2019-04-26T19:53:51.743Z,49.12
2019-04-26T19:56:24.528Z,49.46
2019-04-26T19:58:50.671Z,49.52
2019-04-26T20:01:20.941Z,49.93
2019-04-26T20:03:47.254Z,50.13
2019-04-26T20:06:18.760Z,50.42
2019-04-26T20:08:47.901Z,50.31
2019-04-26T20:11:18.521Z,50.78
2019-04-26T20:13:42.707Z,50.52
2019-04-26T20:16:09.559Z,51.19
2019-04-26T20:18:38.833Z,51.41
2019-04-26T20:21:06.527Z,50.65
2019-04-26T20:23:33.940Z,50.43
2019-04-26T20:26:06.924Z,50.88
2019-04-26T20:28:29.650Z,51.16
2019-04-26T20:31:05.825Z,51.01
2019-04-26T20:33:31.129Z,51.77
2019-04-26T20:36:01.506Z,50.97
2019-04-26T20:38:26.166Z,51.04
2019-04-26T20:40:53.514Z,51.52
2019-04-26T20:43:26.235Z,52.00
2019-04-26T20:46:08.835Z,51.49
2019-04-26T20:48:17.483Z,53.69
2019-04-26T20:50:44.134Z,53.80
2019-04-26T20:53:12.017Z,54.05
2019-04-26T20:55:38.906Z,55.20
2019-04-26T20:58:08.644Z,53.79
2019-04-26T21:00:36.584Z,54.72
2019-04-26T21:03:06.070Z,54.03
2019-04-26T21:05:45.414Z,54.60
2019-04-26T21:08:03.375Z,53.97
2019-04-26T21:10:30.381Z,53.43
2019-04-26T21:12:56.956Z,53.03
2019-04-26T21:15:24.277Z,53.28
2019-04-26T21:17:51.884Z,53.78
2019-04-26T21:20:18.589Z,53.53
2019-04-26T21:22:45.297Z,53.21
2019-04-26T21:25:14.212Z,54.30
2019-04-26T21:27:43.116Z,53.18
2019-04-26T21:30:13.532Z,53.30
2019-04-26T21:32:43.713Z,53.98
2019-04-26T21:35:13.627Z,55.01
2019-04-26T21:37:43.126Z,55.13
2019-04-26T21:40:12.056Z,54.63
2019-04-26T21:42:38.921Z,54.55
2019-04-26T21:45:06.497Z,54.94
2019-04-26T21:47:35.519Z,57.09
2019-04-26T21:50:04.785Z,55.96
2019-04-26T21:52:31.583Z,55.26
2019-04-26T21:54:58.316Z,54.88
2019-04-26T21:57:27.985Z,55.17
2019-04-26T21:59:54.077Z,54.37
2019-04-26T22:02:21.487Z,55.18
2019-04-26T22:04:48.159Z,55.73
2019-04-26T22:07:15.446Z,56.63
2019-04-26T22:09:44.234Z,57.07
2019-04-26T22:12:13.152Z,56.97
2019-04-26T22:14:43.177Z,57.16
2019-04-26T22:17:13.505Z,57.45
2019-04-26T22:19:43.341Z,58.59
2019-04-26T22:22:15.153Z,57.12
2019-04-26T22:24:45.300Z,57.27
2019-04-26T22:27:13.258Z,57.88
2019-04-26T22:29:40.293Z,58.18
2019-04-26T22:32:07.296Z,59.08
2019-04-26T22:34:37.289Z,59.13
2019-04-26T22:37:11.079Z,59.08
2019-04-26T22:39:39.636Z,59.07
2019-04-26T22:42:02.836Z,58.64
2019-04-26T22:44:32.894Z,58.71
2019-04-26T22:47:03.588Z,59.75
2019-04-26T22:49:34.949Z,60.00
2019-04-26T22:52:00.843Z,59.82
2019-04-26T22:54:27.441Z,59.80
2019-04-26T22:56:54.148Z,60.05
2019-04-26T22:59:20.858Z,59.84
2019-04-26T23:01:48.870Z,60.99
2019-04-26T23:04:22.678Z,61.71
2019-04-26T23:06:46.953Z,61.74
2019-04-26T23:09:16.876Z,61.55
2019-04-26T23:11:46.681Z,61.85
2019-04-26T23:14:17.765Z,62.13
2019-04-26T23:17:01.492Z,61.87
2019-04-26T23:19:19.167Z,61.58
2019-04-26T23:21:52.877Z,62.10
2019-04-26T23:24:18.912Z,62.13
2019-04-26T23:26:45.341Z,61.10
2019-04-26T23:29:17.471Z,61.86
2019-04-26T23:31:41.629Z,61.98
2019-04-26T23:34:09.490Z,61.87
2019-04-26T23:36:36.127Z,62.24
2019-04-26T23:39:07.733Z,61.97
2019-04-26T23:41:37.546Z,61.82
2019-04-26T23:44:06.569Z,61.56
2019-04-26T23:46:33.083Z,61.60
2019-04-26T23:49:00.162Z,62.18
2019-04-26T23:51:26.743Z,61.57
2019-04-26T23:53:56.653Z,62.62
2019-04-26T23:56:25.195Z,61.69
2019-04-26T23:58:50.537Z,61.90
